sensor_id;sensor_type;location;lat;lon;timestamp;P1;durP1;ratioP1;P2;durP2;ratioP2
43345;SDS011;28937;51.160;4.146;2023-04-03T00:01:28;6.38;;;3.65;;
43345;SDS011;28937;51.160;4.146;2023-04-03T00:03:53;6.32;;;4.38;;
43345;SDS011;28937;51.160;4.146;2023-04-03T00:06:20;5.93;;;3.92;;
43345;SDS011;28937;51.160;4.146;2023-04-03T00:08:45;5.38;;;4.05;;
43345;SDS011;28937;51.160;4.146;2023-04-03T00:11:11;6.80;;;4.18;;
43345;SDS011;28937;51.160;4.146;2023-04-03T00:13:37;6.10;;;3.83;;
43345;SDS011;28937;51.160;4.146;2023-04-03T00:16:04;8.82;;;4.20;;
43345;SDS011;28937;51.160;4.146;2023-04-03T00:18:30;5.75;;;3.22;;
43345;SDS011;28937;51.160;4.146;2023-04-03T00:20:56;6.60;;;3.65;;
43345;SDS011;28937;51.160;4.146;2023-04-03T00:23:22;4.20;;;3.20;;
43345;SDS011;28937;51.160;4.146;2023-04-03T00:25:48;4.47;;;3.05;;
43345;SDS011;28937;51.160;4.146;2023-04-03T00:28:14;6.30;;;3.33;;
43345;SDS011;28937;51.160;4.146;2023-04-03T00:30:40;3.88;;;2.90;;
43345;SDS011;28937;51.160;4.146;2023-04-03T00:33:06;6.03;;;4.00;;
43345;SDS011;28937;51.160;4.146;2023-04-03T00:35:31;9.98;;;3.67;;
43345;SDS011;28937;51.160;4.146;2023-04-03T00:37:57;5.45;;;3.42;;
43345;SDS011;28937;51.160;4.146;2023-04-03T00:40:23;4.75;;;3.50;;
43345;SDS011;28937;51.160;4.146;2023-04-03T00:42:52;5.65;;;3.67;;
43345;SDS011;28937;51.160;4.146;2023-04-03T00:45:35;5.65;;;3.70;;
43345;SDS011;28937;51.160;4.146;2023-04-03T00:48:06;5.45;;;3.17;;
43345;SDS011;28937;51.160;4.146;2023-04-03T00:50:35;5.28;;;3.83;;
43345;SDS011;28937;51.160;4.146;2023-04-03T00:53:03;5.55;;;3.55;;
43345;SDS011;28937;51.160;4.146;2023-04-03T00:55:31;5.78;;;3.70;;
43345;SDS011;28937;51.160;4.146;2023-04-03T00:57:57;7.07;;;3.90;;
43345;SDS011;28937;51.160;4.146;2023-04-03T01:00:25;3.65;;;2.95;;
43345;SDS011;28937;51.160;4.146;2023-04-03T01:02:51;5.30;;;3.80;;
43345;SDS011;28937;51.160;4.146;2023-04-03T01:05:17;7.05;;;4.13;;
43345;SDS011;28937;51.160;4.146;2023-04-03T01:07:43;7.05;;;4.10;;
43345;SDS011;28937;51.160;4.146;2023-04-03T01:10:11;7.00;;;3.92;;
43345;SDS011;28937;51.160;4.146;2023-04-03T01:12:40;5.75;;;3.67;;
43345;SDS011;28937;51.160;4.146;2023-04-03T01:15:12;7.38;;;4.22;;
43345;SDS011;28937;51.160;4.146;2023-04-03T01:25:34;7.22;;;3.95;;
43345;SDS011;28937;51.160;4.146;2023-04-03T01:28:02;7.18;;;4.18;;
43345;SDS011;28937;51.160;4.146;2023-04-03T01:30:33;4.95;;;4.43;;
43345;SDS011;28937;51.160;4.146;2023-04-03T01:33:02;5.70;;;4.32;;
43345;SDS011;28937;51.160;4.146;2023-04-03T01:35:27;6.50;;;4.30;;
43345;SDS011;28937;51.160;4.146;2023-04-03T01:37:53;6.68;;;4.68;;
43345;SDS011;28937;51.160;4.146;2023-04-03T01:40:19;6.32;;;4.35;;
43345;SDS011;28937;51.160;4.146;2023-04-03T01:42:44;6.07;;;3.65;;
43345;SDS011;28937;51.160;4.146;2023-04-03T01:45:10;8.85;;;4.38;;
43345;SDS011;28937;51.160;4.146;2023-04-03T01:47:35;8.48;;;4.40;;
43345;SDS011;28937;51.160;4.146;2023-04-03T01:50:01;6.72;;;4.20;;
43345;SDS011;28937;51.160;4.146;2023-04-03T01:52:27;6.57;;;4.63;;
43345;SDS011;28937;51.160;4.146;2023-04-03T01:54:52;6.00;;;4.20;;
43345;SDS011;28937;51.160;4.146;2023-04-03T01:57:18;5.78;;;4.28;;
43345;SDS011;28937;51.160;4.146;2023-04-03T01:59:43;5.80;;;4.22;;
43345;SDS011;28937;51.160;4.146;2023-04-03T02:02:09;7.53;;;4.97;;
43345;SDS011;28937;51.160;4.146;2023-04-03T02:04:37;7.78;;;4.50;;
43345;SDS011;28937;51.160;4.146;2023-04-03T02:07:03;7.60;;;4.32;;
43345;SDS011;28937;51.160;4.146;2023-04-03T02:09:28;4.88;;;3.33;;
43345;SDS011;28937;51.160;4.146;2023-04-03T02:11:54;7.45;;;4.75;;
43345;SDS011;28937;51.160;4.146;2023-04-03T02:14:20;8.25;;;4.80;;
43345;SDS011;28937;51.160;4.146;2023-04-03T02:16:46;7.38;;;4.88;;
43345;SDS011;28937;51.160;4.146;2023-04-03T02:19:12;8.57;;;5.05;;
43345;SDS011;28937;51.160;4.146;2023-04-03T02:21:38;6.47;;;4.20;;
43345;SDS011;28937;51.160;4.146;2023-04-03T02:24:03;5.43;;;4.07;;
43345;SDS011;28937;51.160;4.146;2023-04-03T02:26:30;6.88;;;4.13;;
43345;SDS011;28937;51.160;4.146;2023-04-03T02:28:55;5.57;;;4.22;;
43345;SDS011;28937;51.160;4.146;2023-04-03T02:31:21;6.30;;;4.28;;
43345;SDS011;28937;51.160;4.146;2023-04-03T02:33:47;8.90;;;3.90;;
43345;SDS011;28937;51.160;4.146;2023-04-03T02:36:12;7.50;;;4.45;;
43345;SDS011;28937;51.160;4.146;2023-04-03T02:38:38;6.85;;;4.45;;
43345;SDS011;28937;51.160;4.146;2023-04-03T02:41:05;6.80;;;4.57;;
43345;SDS011;28937;51.160;4.146;2023-04-03T02:43:33;6.57;;;4.13;;
43345;SDS011;28937;51.160;4.146;2023-04-03T02:45:59;6.28;;;4.10;;
43345;SDS011;28937;51.160;4.146;2023-04-03T02:48:24;7.97;;;4.15;;
43345;SDS011;28937;51.160;4.146;2023-04-03T02:50:50;6.97;;;4.40;;
43345;SDS011;28937;51.160;4.146;2023-04-03T02:53:16;8.40;;;4.82;;
43345;SDS011;28937;51.160;4.146;2023-04-03T02:55:42;7.13;;;4.00;;
43345;SDS011;28937;51.160;4.146;2023-04-03T02:58:08;5.00;;;3.75;;
43345;SDS011;28937;51.160;4.146;2023-04-03T03:00:34;7.35;;;4.18;;
43345;SDS011;28937;51.160;4.146;2023-04-03T03:02:59;6.03;;;4.30;;
43345;SDS011;28937;51.160;4.146;2023-04-03T03:05:25;6.00;;;4.00;;
43345;SDS011;28937;51.160;4.146;2023-04-03T03:07:52;7.95;;;4.95;;
43345;SDS011;28937;51.160;4.146;2023-04-03T03:10:18;15.88;;;6.25;;
43345;SDS011;28937;51.160;4.146;2023-04-03T03:12:43;10.43;;;6.07;;
43345;SDS011;28937;51.160;4.146;2023-04-03T03:15:09;11.80;;;6.80;;
43345;SDS011;28937;51.160;4.146;2023-04-03T03:17:35;10.18;;;6.97;;
43345;SDS011;28937;51.160;4.146;2023-04-03T03:20:01;7.70;;;6.20;;
43345;SDS011;28937;51.160;4.146;2023-04-03T03:22:30;9.13;;;6.65;;
43345;SDS011;28937;51.160;4.146;2023-04-03T03:24:56;9.68;;;5.72;;
43345;SDS011;28937;51.160;4.146;2023-04-03T03:27:22;7.25;;;4.82;;
43345;SDS011;28937;51.160;4.146;2023-04-03T03:29:48;6.65;;;4.93;;
43345;SDS011;28937;51.160;4.146;2023-04-03T03:32:14;7.20;;;4.53;;
43345;SDS011;28937;51.160;4.146;2023-04-03T03:34:40;6.07;;;4.75;;
43345;SDS011;28937;51.160;4.146;2023-04-03T03:37:05;6.60;;;4.97;;
43345;SDS011;28937;51.160;4.146;2023-04-03T03:39:31;5.57;;;4.82;;
43345;SDS011;28937;51.160;4.146;2023-04-03T03:41:56;6.95;;;4.55;;
43345;SDS011;28937;51.160;4.146;2023-04-03T03:44:22;7.13;;;4.40;;
43345;SDS011;28937;51.160;4.146;2023-04-03T03:46:47;7.63;;;5.10;;
43345;SDS011;28937;51.160;4.146;2023-04-03T03:49:13;7.60;;;4.90;;
43345;SDS011;28937;51.160;4.146;2023-04-03T03:51:39;8.35;;;4.45;;
43345;SDS011;28937;51.160;4.146;2023-04-03T03:54:05;6.68;;;4.47;;
43345;SDS011;28937;51.160;4.146;2023-04-03T03:56:31;7.22;;;4.32;;
43345;SDS011;28937;51.160;4.146;2023-04-03T03:58:57;7.10;;;4.65;;
43345;SDS011;28937;51.160;4.146;2023-04-03T04:01:23;7.78;;;4.90;;
43345;SDS011;28937;51.160;4.146;2023-04-03T04:03:49;10.15;;;4.97;;
43345;SDS011;28937;51.160;4.146;2023-04-03T04:06:15;4.97;;;4.22;;
43345;SDS011;28937;51.160;4.146;2023-04-03T04:08:41;7.50;;;4.70;;
43345;SDS011;28937;51.160;4.146;2023-04-03T04:11:07;9.48;;;5.43;;
43345;SDS011;28937;51.160;4.146;2023-04-03T04:13:33;4.97;;;4.07;;
43345;SDS011;28937;51.160;4.146;2023-04-03T04:15:58;7.40;;;3.88;;
43345;SDS011;28937;51.160;4.146;2023-04-03T04:18:24;6.13;;;4.25;;
43345;SDS011;28937;51.160;4.146;2023-04-03T04:20:50;6.15;;;4.07;;
43345;SDS011;28937;51.160;4.146;2023-04-03T04:23:16;5.70;;;4.05;;
43345;SDS011;28937;51.160;4.146;2023-04-03T04:25:46;4.85;;;3.80;;
43345;SDS011;28937;51.160;4.146;2023-04-03T04:28:12;8.05;;;4.30;;
43345;SDS011;28937;51.160;4.146;2023-04-03T04:30:38;5.78;;;4.18;;
43345;SDS011;28937;51.160;4.146;2023-04-03T04:33:03;7.65;;;4.57;;
43345;SDS011;28937;51.160;4.146;2023-04-03T04:35:29;6.82;;;4.55;;
43345;SDS011;28937;51.160;4.146;2023-04-03T04:37:55;6.68;;;4.47;;
43345;SDS011;28937;51.160;4.146;2023-04-03T04:40:21;9.30;;;4.50;;
43345;SDS011;28937;51.160;4.146;2023-04-03T04:42:47;5.57;;;3.85;;
43345;SDS011;28937;51.160;4.146;2023-04-03T04:45:12;7.55;;;4.20;;
43345;SDS011;28937;51.160;4.146;2023-04-03T04:47:38;7.10;;;4.28;;
43345;SDS011;28937;51.160;4.146;2023-04-03T04:50:04;7.55;;;4.78;;
43345;SDS011;28937;51.160;4.146;2023-04-03T04:52:30;6.75;;;4.45;;
43345;SDS011;28937;51.160;4.146;2023-04-03T04:54:55;7.55;;;4.68;;
43345;SDS011;28937;51.160;4.146;2023-04-03T04:57:21;8.05;;;4.50;;
43345;SDS011;28937;51.160;4.146;2023-04-03T04:59:47;6.68;;;4.40;;
43345;SDS011;28937;51.160;4.146;2023-04-03T05:02:12;5.55;;;3.83;;
43345;SDS011;28937;51.160;4.146;2023-04-03T05:04:38;4.65;;;4.10;;
43345;SDS011;28937;51.160;4.146;2023-04-03T05:07:03;8.25;;;4.03;;
43345;SDS011;28937;51.160;4.146;2023-04-03T05:09:29;8.57;;;4.55;;
43345;SDS011;28937;51.160;4.146;2023-04-03T05:11:54;10.48;;;4.57;;
43345;SDS011;28937;51.160;4.146;2023-04-03T05:14:21;5.80;;;4.15;;
43345;SDS011;28937;51.160;4.146;2023-04-03T05:16:46;6.68;;;4.60;;
43345;SDS011;28937;51.160;4.146;2023-04-03T05:19:12;8.15;;;4.93;;
43345;SDS011;28937;51.160;4.146;2023-04-03T05:21:38;6.40;;;4.57;;
43345;SDS011;28937;51.160;4.146;2023-04-03T05:24:04;6.25;;;4.53;;
43345;SDS011;28937;51.160;4.146;2023-04-03T05:26:30;8.02;;;5.00;;
43345;SDS011;28937;51.160;4.146;2023-04-03T05:28:56;7.85;;;4.78;;
43345;SDS011;28937;51.160;4.146;2023-04-03T05:31:21;10.85;;;5.70;;
43345;SDS011;28937;51.160;4.146;2023-04-03T05:33:47;8.55;;;5.35;;
43345;SDS011;28937;51.160;4.146;2023-04-03T05:36:13;8.57;;;5.03;;
43345;SDS011;28937;51.160;4.146;2023-04-03T05:38:39;9.18;;;5.45;;
43345;SDS011;28937;51.160;4.146;2023-04-03T05:41:05;9.00;;;5.80;;
43345;SDS011;28937;51.160;4.146;2023-04-03T05:43:31;10.18;;;5.55;;
43345;SDS011;28937;51.160;4.146;2023-04-03T05:45:57;10.60;;;6.97;;
43345;SDS011;28937;51.160;4.146;2023-04-03T05:48:23;11.57;;;6.07;;
43345;SDS011;28937;51.160;4.146;2023-04-03T05:50:48;9.55;;;6.13;;
43345;SDS011;28937;51.160;4.146;2023-04-03T05:53:18;12.35;;;8.38;;
43345;SDS011;28937;51.160;4.146;2023-04-03T05:55:48;10.07;;;6.90;;
43345;SDS011;28937;51.160;4.146;2023-04-03T05:58:13;20.60;;;11.75;;
43345;SDS011;28937;51.160;4.146;2023-04-03T06:00:39;18.52;;;9.35;;
43345;SDS011;28937;51.160;4.146;2023-04-03T06:03:05;12.20;;;8.32;;
43345;SDS011;28937;51.160;4.146;2023-04-03T06:05:31;9.80;;;7.10;;
43345;SDS011;28937;51.160;4.146;2023-04-03T06:07:56;10.52;;;7.22;;
43345;SDS011;28937;51.160;4.146;2023-04-03T06:10:22;10.68;;;7.20;;
43345;SDS011;28937;51.160;4.146;2023-04-03T06:12:48;13.70;;;7.78;;
43345;SDS011;28937;51.160;4.146;2023-04-03T06:15:13;15.02;;;7.43;;
43345;SDS011;28937;51.160;4.146;2023-04-03T06:17:40;11.02;;;7.93;;
43345;SDS011;28937;51.160;4.146;2023-04-03T06:20:06;10.85;;;7.32;;
43345;SDS011;28937;51.160;4.146;2023-04-03T06:22:32;8.80;;;7.63;;
43345;SDS011;28937;51.160;4.146;2023-04-03T06:24:58;10.55;;;7.20;;
43345;SDS011;28937;51.160;4.146;2023-04-03T06:27:23;10.73;;;6.60;;
43345;SDS011;28937;51.160;4.146;2023-04-03T06:29:49;9.68;;;6.45;;
43345;SDS011;28937;51.160;4.146;2023-04-03T06:32:15;12.10;;;6.40;;
43345;SDS011;28937;51.160;4.146;2023-04-03T06:34:41;9.07;;;6.35;;
43345;SDS011;28937;51.160;4.146;2023-04-03T06:37:10;10.73;;;6.18;;
43345;SDS011;28937;51.160;4.146;2023-04-03T06:39:40;8.05;;;5.78;;
43345;SDS011;28937;51.160;4.146;2023-04-03T06:42:06;8.52;;;6.13;;
43345;SDS011;28937;51.160;4.146;2023-04-03T06:44:32;6.07;;;5.43;;
43345;SDS011;28937;51.160;4.146;2023-04-03T06:46:59;11.05;;;6.82;;
43345;SDS011;28937;51.160;4.146;2023-04-03T06:49:25;7.88;;;5.53;;
43345;SDS011;28937;51.160;4.146;2023-04-03T06:51:51;10.50;;;5.45;;
43345;SDS011;28937;51.160;4.146;2023-04-03T06:54:16;7.35;;;5.75;;
43345;SDS011;28937;51.160;4.146;2023-04-03T06:56:43;6.50;;;5.30;;
43345;SDS011;28937;51.160;4.146;2023-04-03T06:59:09;7.68;;;5.32;;
43345;SDS011;28937;51.160;4.146;2023-04-03T07:01:36;5.95;;;4.95;;
43345;SDS011;28937;51.160;4.146;2023-04-03T07:04:02;7.55;;;5.38;;
43345;SDS011;28937;51.160;4.146;2023-04-03T07:06:27;8.75;;;5.10;;
43345;SDS011;28937;51.160;4.146;2023-04-03T07:08:53;8.02;;;5.05;;
43345;SDS011;28937;51.160;4.146;2023-04-03T07:11:19;7.25;;;5.28;;
43345;SDS011;28937;51.160;4.146;2023-04-03T07:13:45;8.48;;;4.90;;
43345;SDS011;28937;51.160;4.146;2023-04-03T07:16:11;10.75;;;5.13;;
43345;SDS011;28937;51.160;4.146;2023-04-03T07:18:37;8.93;;;5.68;;
43345;SDS011;28937;51.160;4.146;2023-04-03T07:21:03;9.23;;;4.82;;
43345;SDS011;28937;51.160;4.146;2023-04-03T07:23:29;8.88;;;4.95;;
43345;SDS011;28937;51.160;4.146;2023-04-03T07:25:55;7.32;;;4.50;;
43345;SDS011;28937;51.160;4.146;2023-04-03T07:28:21;7.68;;;4.53;;
43345;SDS011;28937;51.160;4.146;2023-04-03T07:30:54;6.80;;;5.35;;
43345;SDS011;28937;51.160;4.146;2023-04-03T07:33:24;7.78;;;4.88;;
43345;SDS011;28937;51.160;4.146;2023-04-03T07:35:50;6.32;;;4.63;;
43345;SDS011;28937;51.160;4.146;2023-04-03T07:38:16;6.75;;;4.45;;
43345;SDS011;28937;51.160;4.146;2023-04-03T07:40:45;7.28;;;4.55;;
43345;SDS011;28937;51.160;4.146;2023-04-03T07:43:11;6.75;;;4.40;;
43345;SDS011;28937;51.160;4.146;2023-04-03T07:45:37;7.30;;;4.53;;
43345;SDS011;28937;51.160;4.146;2023-04-03T07:48:03;6.47;;;3.85;;
43345;SDS011;28937;51.160;4.146;2023-04-03T07:50:29;8.55;;;4.22;;
43345;SDS011;28937;51.160;4.146;2023-04-03T07:52:56;6.57;;;4.25;;
43345;SDS011;28937;51.160;4.146;2023-04-03T07:55:22;7.82;;;4.38;;
43345;SDS011;28937;51.160;4.146;2023-04-03T07:57:48;8.60;;;4.88;;
43345;SDS011;28937;51.160;4.146;2023-04-03T08:00:14;7.53;;;4.15;;
43345;SDS011;28937;51.160;4.146;2023-04-03T08:02:42;6.38;;;3.80;;
43345;SDS011;28937;51.160;4.146;2023-04-03T08:05:09;7.63;;;3.60;;
43345;SDS011;28937;51.160;4.146;2023-04-03T08:07:37;7.22;;;4.10;;
43345;SDS011;28937;51.160;4.146;2023-04-03T08:10:03;5.82;;;3.67;;
43345;SDS011;28937;51.160;4.146;2023-04-03T08:12:29;8.43;;;3.95;;
43345;SDS011;28937;51.160;4.146;2023-04-03T08:14:56;10.23;;;4.47;;
43345;SDS011;28937;51.160;4.146;2023-04-03T08:17:24;7.40;;;4.40;;
43345;SDS011;28937;51.160;4.146;2023-04-03T08:19:51;8.10;;;3.83;;
43345;SDS011;28937;51.160;4.146;2023-04-03T08:22:16;5.82;;;3.95;;
43345;SDS011;28937;51.160;4.146;2023-04-03T08:24:42;6.80;;;3.80;;
43345;SDS011;28937;51.160;4.146;2023-04-03T08:27:08;7.82;;;4.07;;
43345;SDS011;28937;51.160;4.146;2023-04-03T08:29:33;6.78;;;3.45;;
43345;SDS011;28937;51.160;4.146;2023-04-03T08:31:59;6.47;;;3.95;;
43345;SDS011;28937;51.160;4.146;2023-04-03T08:34:24;7.68;;;4.13;;
43345;SDS011;28937;51.160;4.146;2023-04-03T08:36:50;8.48;;;4.20;;
43345;SDS011;28937;51.160;4.146;2023-04-03T08:39:16;6.55;;;4.00;;
43345;SDS011;28937;51.160;4.146;2023-04-03T08:41:42;6.63;;;3.55;;
43345;SDS011;28937;51.160;4.146;2023-04-03T08:44:15;6.57;;;3.53;;
43345;SDS011;28937;51.160;4.146;2023-04-03T08:46:56;7.32;;;3.50;;
43345;SDS011;28937;51.160;4.146;2023-04-03T08:49:42;6.82;;;3.15;;
43345;SDS011;28937;51.160;4.146;2023-04-03T08:55:03;6.88;;;3.10;;
43345;SDS011;28937;51.160;4.146;2023-04-03T09:00:01;5.57;;;2.90;;
43345;SDS011;28937;51.160;4.146;2023-04-03T09:05:09;5.80;;;2.67;;
43345;SDS011;28937;51.160;4.146;2023-04-03T09:08:01;8.63;;;2.78;;
43345;SDS011;28937;51.160;4.146;2023-04-03T09:10:33;5.22;;;2.40;;
43345;SDS011;28937;51.160;4.146;2023-04-03T09:15:33;5.38;;;2.20;;
43345;SDS011;28937;51.160;4.146;2023-04-03T09:23:43;5.30;;;2.20;;
43345;SDS011;28937;51.160;4.146;2023-04-03T09:26:42;6.30;;;1.90;;
43345;SDS011;28937;51.160;4.146;2023-04-03T09:29:08;4.18;;;1.95;;
43345;SDS011;28937;51.160;4.146;2023-04-03T09:31:39;4.78;;;1.90;;
43345;SDS011;28937;51.160;4.146;2023-04-03T09:34:30;5.18;;;1.65;;
43345;SDS011;28937;51.160;4.146;2023-04-03T09:37:03;3.50;;;2.05;;
43345;SDS011;28937;51.160;4.146;2023-04-03T09:39:31;4.38;;;1.73;;
43345;SDS011;28937;51.160;4.146;2023-04-03T09:42:21;5.88;;;1.90;;
43345;SDS011;28937;51.160;4.146;2023-04-03T09:47:25;4.30;;;1.67;;
43345;SDS011;28937;51.160;4.146;2023-04-03T09:52:43;6.25;;;1.80;;
43345;SDS011;28937;51.160;4.146;2023-04-03T09:55:14;4.30;;;1.90;;
43345;SDS011;28937;51.160;4.146;2023-04-03T09:57:46;4.88;;;1.60;;
43345;SDS011;28937;51.160;4.146;2023-04-03T10:00:24;4.65;;;1.98;;
43345;SDS011;28937;51.160;4.146;2023-04-03T10:02:56;4.40;;;1.50;;
43345;SDS011;28937;51.160;4.146;2023-04-03T10:07:50;3.90;;;1.73;;
43345;SDS011;28937;51.160;4.146;2023-04-03T10:10:20;6.50;;;2.10;;
43345;SDS011;28937;51.160;4.146;2023-04-03T10:12:48;3.85;;;1.70;;
43345;SDS011;28937;51.160;4.146;2023-04-03T10:15:28;5.22;;;1.90;;
43345;SDS011;28937;51.160;4.146;2023-04-03T10:18:01;3.17;;;1.88;;
43345;SDS011;28937;51.160;4.146;2023-04-03T10:20:37;7.25;;;2.05;;
43345;SDS011;28937;51.160;4.146;2023-04-03T10:26:02;5.07;;;1.95;;
43345;SDS011;28937;51.160;4.146;2023-04-03T10:29:13;7.07;;;2.45;;
43345;SDS011;28937;51.160;4.146;2023-04-03T10:34:42;4.88;;;1.95;;
43345;SDS011;28937;51.160;4.146;2023-04-03T10:37:23;6.00;;;1.98;;
43345;SDS011;28937;51.160;4.146;2023-04-03T10:40:19;5.17;;;1.77;;
43345;SDS011;28937;51.160;4.146;2023-04-03T10:42:59;6.32;;;2.25;;
43345;SDS011;28937;51.160;4.146;2023-04-03T10:45:57;6.30;;;1.90;;
43345;SDS011;28937;51.160;4.146;2023-04-03T10:48:39;4.22;;;1.70;;
43345;SDS011;28937;51.160;4.146;2023-04-03T10:51:25;6.25;;;1.98;;
43345;SDS011;28937;51.160;4.146;2023-04-03T10:57:03;5.28;;;1.95;;
43345;SDS011;28937;51.160;4.146;2023-04-03T11:04:41;3.30;;;1.33;;
43345;SDS011;28937;51.160;4.146;2023-04-03T11:07:20;6.03;;;1.80;;
43345;SDS011;28937;51.160;4.146;2023-04-03T11:09:55;4.97;;;1.80;;
43345;SDS011;28937;51.160;4.146;2023-04-03T11:12:36;3.50;;;1.42;;
43345;SDS011;28937;51.160;4.146;2023-04-03T11:15:12;4.45;;;1.55;;
43345;SDS011;28937;51.160;4.146;2023-04-03T11:17:41;3.95;;;1.73;;
43345;SDS011;28937;51.160;4.146;2023-04-03T11:20:19;4.82;;;1.88;;
43345;SDS011;28937;51.160;4.146;2023-04-03T11:22:53;5.32;;;1.75;;
43345;SDS011;28937;51.160;4.146;2023-04-03T11:25:25;2.17;;;1.10;;
43345;SDS011;28937;51.160;4.146;2023-04-03T11:28:04;4.85;;;1.70;;
43345;SDS011;28937;51.160;4.146;2023-04-03T11:33:05;5.43;;;1.27;;
43345;SDS011;28937;51.160;4.146;2023-04-03T11:36:19;3.58;;;1.15;;
43345;SDS011;28937;51.160;4.146;2023-04-03T11:38:50;4.20;;;1.15;;
43345;SDS011;28937;51.160;4.146;2023-04-03T11:41:24;2.67;;;1.35;;
43345;SDS011;28937;51.160;4.146;2023-04-03T11:43:56;4.60;;;1.40;;
43345;SDS011;28937;51.160;4.146;2023-04-03T11:46:40;3.20;;;1.48;;
43345;SDS011;28937;51.160;4.146;2023-04-03T12:40:25;1.85;;;0.98;;
43345;SDS011;28937;51.160;4.146;2023-04-03T12:43:01;5.18;;;0.82;;
43345;SDS011;28937;51.160;4.146;2023-04-03T12:48:22;2.33;;;0.90;;
43345;SDS011;28937;51.160;4.146;2023-04-03T12:50:51;2.20;;;0.90;;
43345;SDS011;28937;51.160;4.146;2023-04-03T12:53:18;2.35;;;1.20;;
43345;SDS011;28937;51.160;4.146;2023-04-03T12:55:47;2.13;;;0.93;;
43345;SDS011;28937;51.160;4.146;2023-04-03T12:58:22;2.92;;;1.00;;
43345;SDS011;28937;51.160;4.146;2023-04-03T13:01:12;3.85;;;1.33;;
43345;SDS011;28937;51.160;4.146;2023-04-03T13:03:37;4.57;;;1.85;;
43345;SDS011;28937;51.160;4.146;2023-04-03T13:06:05;2.67;;;0.85;;
43345;SDS011;28937;51.160;4.146;2023-04-03T13:08:31;6.20;;;1.13;;
43345;SDS011;28937;51.160;4.146;2023-04-03T13:11:08;2.38;;;0.60;;
43345;SDS011;28937;51.160;4.146;2023-04-03T13:13:36;3.40;;;0.90;;
43345;SDS011;28937;51.160;4.146;2023-04-03T13:16:08;3.35;;;0.80;;
43345;SDS011;28937;51.160;4.146;2023-04-03T13:18:35;1.92;;;0.60;;
43345;SDS011;28937;51.160;4.146;2023-04-03T13:21:03;1.52;;;0.50;;
43345;SDS011;28937;51.160;4.146;2023-04-03T13:23:38;2.13;;;0.70;;
43345;SDS011;28937;51.160;4.146;2023-04-03T13:26:07;6.15;;;1.10;;
43345;SDS011;28937;51.160;4.146;2023-04-03T13:28:34;1.58;;;0.63;;
43345;SDS011;28937;51.160;4.146;2023-04-03T13:31:06;3.30;;;1.23;;
43345;SDS011;28937;51.160;4.146;2023-04-03T13:33:32;3.33;;;0.75;;
43345;SDS011;28937;51.160;4.146;2023-04-03T13:36:19;3.05;;;0.80;;
43345;SDS011;28937;51.160;4.146;2023-04-03T13:38:58;1.38;;;0.60;;
43345;SDS011;28937;51.160;4.146;2023-04-03T13:41:47;2.15;;;0.90;;
43345;SDS011;28937;51.160;4.146;2023-04-03T13:44:24;4.50;;;0.93;;
43345;SDS011;28937;51.160;4.146;2023-04-03T13:46:56;4.32;;;1.15;;
43345;SDS011;28937;51.160;4.146;2023-04-03T13:52:47;3.00;;;0.80;;
43345;SDS011;28937;51.160;4.146;2023-04-03T13:54:47;3.78;;;0.75;;
43345;SDS011;28937;51.160;4.146;2023-04-03T13:57:17;4.85;;;1.10;;
43345;SDS011;28937;51.160;4.146;2023-04-03T13:59:45;3.72;;;1.08;;
43345;SDS011;28937;51.160;4.146;2023-04-03T14:02:17;1.27;;;0.57;;
43345;SDS011;28937;51.160;4.146;2023-04-03T14:04:58;2.75;;;0.90;;
43345;SDS011;28937;51.160;4.146;2023-04-03T14:07:26;2.65;;;1.10;;
43345;SDS011;28937;51.160;4.146;2023-04-03T14:09:54;4.00;;;1.17;;
43345;SDS011;28937;51.160;4.146;2023-04-03T14:12:27;2.97;;;1.10;;
43345;SDS011;28937;51.160;4.146;2023-04-03T14:14:56;1.30;;;0.52;;
43345;SDS011;28937;51.160;4.146;2023-04-03T14:17:23;2.13;;;0.90;;
43345;SDS011;28937;51.160;4.146;2023-04-03T14:19:51;2.10;;;0.95;;
43345;SDS011;28937;51.160;4.146;2023-04-03T14:24:50;2.25;;;0.82;;
43345;SDS011;28937;51.160;4.146;2023-04-03T14:27:20;2.47;;;0.70;;
43345;SDS011;28937;51.160;4.146;2023-04-03T14:29:52;5.20;;;0.95;;
43345;SDS011;28937;51.160;4.146;2023-04-03T14:32:19;1.52;;;0.90;;
43345;SDS011;28937;51.160;4.146;2023-04-03T14:34:46;5.22;;;0.90;;
43345;SDS011;28937;51.160;4.146;2023-04-03T14:37:14;2.70;;;0.77;;
43345;SDS011;28937;51.160;4.146;2023-04-03T14:39:41;4.40;;;0.60;;
43345;SDS011;28937;51.160;4.146;2023-04-03T14:42:15;3.33;;;1.15;;
43345;SDS011;28937;51.160;4.146;2023-04-03T14:44:43;1.75;;;0.70;;
43345;SDS011;28937;51.160;4.146;2023-04-03T14:47:10;2.33;;;0.88;;
43345;SDS011;28937;51.160;4.146;2023-04-03T14:49:41;1.93;;;0.70;;
43345;SDS011;28937;51.160;4.146;2023-04-03T14:52:10;1.33;;;0.52;;
43345;SDS011;28937;51.160;4.146;2023-04-03T14:54:47;1.40;;;0.52;;
43345;SDS011;28937;51.160;4.146;2023-04-03T14:57:13;2.10;;;0.60;;
43345;SDS011;28937;51.160;4.146;2023-04-03T14:59:40;2.53;;;0.77;;
43345;SDS011;28937;51.160;4.146;2023-04-03T15:02:39;3.33;;;0.60;;
43345;SDS011;28937;51.160;4.146;2023-04-03T15:04:59;2.60;;;1.23;;
43345;SDS011;28937;51.160;4.146;2023-04-03T15:07:28;3.10;;;0.95;;
43345;SDS011;28937;51.160;4.146;2023-04-03T15:09:56;2.63;;;0.80;;
43345;SDS011;28937;51.160;4.146;2023-04-03T15:12:22;3.35;;;0.80;;
43345;SDS011;28937;51.160;4.146;2023-04-03T15:14:48;1.63;;;0.80;;
43345;SDS011;28937;51.160;4.146;2023-04-03T15:17:17;3.33;;;1.10;;
43345;SDS011;28937;51.160;4.146;2023-04-03T15:19:46;4.07;;;1.40;;
43345;SDS011;28937;51.160;4.146;2023-04-03T15:22:15;4.00;;;1.60;;
43345;SDS011;28937;51.160;4.146;2023-04-03T15:24:43;4.95;;;2.67;;
43345;SDS011;28937;51.160;4.146;2023-04-03T15:27:09;3.10;;;1.60;;
43345;SDS011;28937;51.160;4.146;2023-04-03T15:29:36;2.25;;;0.77;;
43345;SDS011;28937;51.160;4.146;2023-04-03T15:32:03;1.23;;;0.57;;
43345;SDS011;28937;51.160;4.146;2023-04-03T15:34:29;1.58;;;0.60;;
43345;SDS011;28937;51.160;4.146;2023-04-03T15:36:55;1.25;;;0.50;;
43345;SDS011;28937;51.160;4.146;2023-04-03T15:39:21;2.67;;;0.77;;
43345;SDS011;28937;51.160;4.146;2023-04-03T15:41:47;1.45;;;0.60;;
43345;SDS011;28937;51.160;4.146;2023-04-03T15:44:13;1.65;;;0.70;;
43345;SDS011;28937;51.160;4.146;2023-04-03T15:46:42;3.20;;;1.05;;
43345;SDS011;28937;51.160;4.146;2023-04-03T15:49:08;3.80;;;0.75;;
43345;SDS011;28937;51.160;4.146;2023-04-03T15:51:34;2.55;;;0.90;;
43345;SDS011;28937;51.160;4.146;2023-04-03T15:54:00;3.45;;;1.15;;
43345;SDS011;28937;51.160;4.146;2023-04-03T15:56:26;3.33;;;0.98;;
43345;SDS011;28937;51.160;4.146;2023-04-03T15:58:51;5.68;;;3.85;;
43345;SDS011;28937;51.160;4.146;2023-04-03T16:01:17;2.63;;;1.25;;
43345;SDS011;28937;51.160;4.146;2023-04-03T16:03:43;2.85;;;1.05;;
43345;SDS011;28937;51.160;4.146;2023-04-03T16:06:11;1.67;;;0.85;;
43345;SDS011;28937;51.160;4.146;2023-04-03T16:08:37;2.53;;;1.40;;
43345;SDS011;28937;51.160;4.146;2023-04-03T16:11:03;1.73;;;0.77;;
43345;SDS011;28937;51.160;4.146;2023-04-03T16:13:29;2.17;;;0.85;;
43345;SDS011;28937;51.160;4.146;2023-04-03T16:15:55;1.58;;;0.80;;
43345;SDS011;28937;51.160;4.146;2023-04-03T16:18:21;1.50;;;0.68;;
43345;SDS011;28937;51.160;4.146;2023-04-03T16:20:46;1.27;;;0.70;;
43345;SDS011;28937;51.160;4.146;2023-04-03T16:23:12;2.10;;;0.93;;
43345;SDS011;28937;51.160;4.146;2023-04-03T16:25:38;2.70;;;1.20;;
43345;SDS011;28937;51.160;4.146;2023-04-03T16:28:04;2.95;;;0.88;;
43345;SDS011;28937;51.160;4.146;2023-04-03T16:30:30;1.20;;;0.70;;
43345;SDS011;28937;51.160;4.146;2023-04-03T16:32:56;2.60;;;1.00;;
43345;SDS011;28937;51.160;4.146;2023-04-03T16:35:22;3.30;;;0.90;;
43345;SDS011;28937;51.160;4.146;2023-04-03T16:37:48;3.70;;;0.95;;
43345;SDS011;28937;51.160;4.146;2023-04-03T16:40:13;3.25;;;0.95;;
43345;SDS011;28937;51.160;4.146;2023-04-03T16:42:39;4.95;;;1.13;;